Terminal Aerodrome Forecast
Issued by NWS

Home | Current Version | Previous Version | Graphics & Text | Print | Product List | Glossary On
Versions: 1 2 3 4 5 6 7 8 9 10 11 12 13 14 15 16 17 18
252
FTUS42 KMHX 242339
TAFISO
TAF
KISO 242339Z 2500/2524 00000KT P6SM SKC
     FM250900 04005KT P6SM SCT007 BKN015
     FM251600 05008KT P6SM BKN035
      AMD LTD TO CLD VIS AND WIND=

USA.gov is the U.S. government's official web portal to all federal, state and local government web resources and services.